Time;durP1;ratioP1;P1;durP2;ratioP2;P2;SDS_P1;SDS_P2;PMS_P1;PMS_P2;Temp;Humidity;BMP_temperature;BMP_pressure;BME280_temperature;BME280_humidity;BME280_pressure;Samples;Min_cycle;Max_cycle;Signal;HPM_P1;HPM_P2
2024/03/15 00:00:51;;;;;;;237.87;74.30;;;;;;;;;;5014378;28;20493;-44
2024/03/15 00:03:17;;;;;;;243.27;81.37;;;;;;;;;;5014351;28;20776;-45
2024/03/15 00:05:43;;;;;;;241.80;78.30;;;;;;;;;;5014051;28;20480;-45
2024/03/15 00:08:09;;;;;;;241.25;77.88;;;;;;;;;;5014073;28;20447;-45
2024/03/15 00:10:35;;;;;;;238.55;75.20;;;;;;;;;;5014759;28;20176;-45
2024/03/15 00:13:03;;;;;;;239.77;75.50;;;;;;;;;;5014476;28;20239;-46
2024/03/15 00:15:29;;;;;;;243.80;79.63;;;;;;;;;;5013917;28;20437;-45
2024/03/15 00:17:55;;;;;;;247.93;83.40;;;;;;;;;;5014174;28;20184;-45
2024/03/15 00:20:22;;;;;;;246.97;84.97;;;;;;;;;;5013875;28;20634;-45
2024/03/15 00:22:50;;;;;;;240.83;75.20;;;;;;;;;;5014252;28;20407;-46
2024/03/15 00:25:18;;;;;;;248.93;84.33;;;;;;;;;;5013816;28;20430;-45
2024/03/15 00:27:44;;;;;;;244.87;81.43;;;;;;;;;;5014043;28;20817;-45
2024/03/15 00:30:10;;;;;;;238.40;72.87;;;;;;;;;;5014012;28;20407;-45
2024/03/15 00:32:36;;;;;;;242.90;77.63;;;;;;;;;;5014001;28;20417;-45
2024/03/15 00:35:02;;;;;;;244.03;78.33;;;;;;;;;;5013644;28;20177;-45
2024/03/15 00:37:28;;;;;;;237.67;72.80;;;;;;;;;;5014014;28;20808;-46
2024/03/15 00:39:54;;;;;;;240.17;76.10;;;;;;;;;;5014219;28;20473;-45
2024/03/15 00:42:21;;;;;;;243.00;78.83;;;;;;;;;;5013833;28;20906;-46
2024/03/15 00:44:48;;;;;;;237.55;71.57;;;;;;;;;;5012943;28;20948;-46
2024/03/15 00:47:14;;;;;;;244.10;79.87;;;;;;;;;;5013202;28;20207;-45
2024/03/15 00:49:40;;;;;;;240.77;75.53;;;;;;;;;;5013465;28;20908;-45
2024/03/15 00:52:06;;;;;;;243.80;79.00;;;;;;;;;;5013623;28;20437;-45
2024/03/15 00:54:34;;;;;;;239.67;73.60;;;;;;;;;;5013580;28;20928;-45
2024/03/15 00:57:01;;;;;;;239.52;74.60;;;;;;;;;;5013204;28;20841;-45
2024/03/15 00:59:27;;;;;;;242.07;76.60;;;;;;;;;;5009714;28;20286;-45
2024/03/15 01:01:53;;;;;;;245.33;83.83;;;;;;;;;;5013163;28;20500;-45
2024/03/15 01:04:19;;;;;;;242.47;77.97;;;;;;;;;;5013327;28;20427;-45
2024/03/15 01:06:45;;;;;;;242.47;78.80;;;;;;;;;;5012750;28;21128;-46
2024/03/15 01:09:13;;;;;;;240.83;76.40;;;;;;;;;;5014604;28;20418;-46
2024/03/15 01:11:39;;;;;;;240.10;76.60;;;;;;;;;;5013038;28;20415;-45
2024/03/15 01:14:05;;;;;;;239.07;74.63;;;;;;;;;;5013422;28;20787;-45
2024/03/15 01:16:31;;;;;;;242.15;76.55;;;;;;;;;;5012490;28;20431;-45
2024/03/15 01:18:58;;;;;;;238.53;73.43;;;;;;;;;;5013017;28;20714;-46
2024/03/15 01:21:26;;;;;;;244.17;80.33;;;;;;;;;;5013015;28;20411;-45
2024/03/15 01:23:52;;;;;;;245.23;82.93;;;;;;;;;;5013130;28;20407;-45
2024/03/15 01:26:18;;;;;;;244.75;85.68;;;;;;;;;;5012585;28;20332;-45
2024/03/15 01:28:44;;;;;;;244.47;81.67;;;;;;;;;;5013316;28;20182;-45
2024/03/15 01:31:10;;;;;;;239.13;77.17;;;;;;;;;;5012762;28;20761;-45
2024/03/15 01:33:36;;;;;;;239.30;73.63;;;;;;;;;;5013181;28;20947;-45
2024/03/15 01:36:02;;;;;;;236.77;71.17;;;;;;;;;;5012520;28;20219;-46
2024/03/15 01:38:31;;;;;;;239.30;73.17;;;;;;;;;;5012557;28;20838;-45
2024/03/15 01:40:57;;;;;;;244.70;80.63;;;;;;;;;;5012738;28;20469;-45
2024/03/15 01:43:23;;;;;;;237.68;71.80;;;;;;;;;;5012633;28;20172;-45
2024/03/15 01:45:50;;;;;;;240.33;76.60;;;;;;;;;;5012230;28;20210;-46
2024/03/15 01:48:17;;;;;;;241.38;76.97;;;;;;;;;;5012588;28;20407;-45
2024/03/15 01:50:43;;;;;;;243.10;82.10;;;;;;;;;;5012658;28;20179;-46
2024/03/15 01:53:09;;;;;;;238.60;75.03;;;;;;;;;;5012693;28;20403;-46
2024/03/15 01:55:35;;;;;;;245.18;82.65;;;;;;;;;;5012261;28;20435;-45
2024/03/15 01:58:01;;;;;;;243.07;78.57;;;;;;;;;;5012349;28;20257;-45
2024/03/15 02:00:27;;;;;;;239.33;74.97;;;;;;;;;;5012066;28;20466;-46
2024/03/15 02:02:53;;;;;;;245.70;82.27;;;;;;;;;;5011561;28;20403;-46
2024/03/15 02:05:20;;;;;;;240.20;74.37;;;;;;;;;;5011631;28;20465;-45
2024/03/15 02:07:46;;;;;;;244.27;79.53;;;;;;;;;;5012304;28;20422;-46
2024/03/15 02:10:13;;;;;;;239.07;76.37;;;;;;;;;;5012144;28;20188;-45
2024/03/15 02:12:39;;;;;;;241.93;78.17;;;;;;;;;;5012144;28;20427;-45
2024/03/15 02:15:05;;;;;;;245.10;80.68;;;;;;;;;;5011776;28;20894;-46
2024/03/15 02:17:32;;;;;;;243.60;81.07;;;;;;;;;;5012328;28;20177;-46
2024/03/15 02:19:58;;;;;;;242.47;78.10;;;;;;;;;;5011244;28;20451;-45
2024/03/15 02:22:24;;;;;;;241.50;77.73;;;;;;;;;;5011954;28;20493;-46
2024/03/15 02:24:50;;;;;;;244.40;83.25;;;;;;;;;;5011976;28;20506;-45
2024/03/15 02:27:17;;;;;;;244.67;82.80;;;;;;;;;;5011526;28;20224;-45
2024/03/15 02:29:44;;;;;;;241.80;78.60;;;;;;;;;;5011792;28;20782;-45
2024/03/15 02:32:11;;;;;;;242.68;76.38;;;;;;;;;;5011809;28;20421;-45
2024/03/15 02:34:38;;;;;;;240.70;76.73;;;;;;;;;;5011819;28;20182;-45
2024/03/15 02:37:04;;;;;;;241.10;77.95;;;;;;;;;;5011490;28;20474;-46
2024/03/15 02:39:30;;;;;;;242.63;79.28;;;;;;;;;;5011917;28;20215;-45
2024/03/15 02:41:59;;;;;;;239.33;74.77;;;;;;;;;;5011742;28;20532;-45
2024/03/15 02:44:25;;;;;;;241.57;75.83;;;;;;;;;;5011017;28;20921;-45
2024/03/15 02:46:51;;;;;;;243.07;78.87;;;;;;;;;;5010909;28;20472;-45
2024/03/15 02:49:17;;;;;;;243.80;77.77;;;;;;;;;;5011410;28;20475;-46
2024/03/15 02:51:43;;;;;;;240.97;78.70;;;;;;;;;;5011448;28;20898;-45
2024/03/15 02:54:09;;;;;;;242.97;79.90;;;;;;;;;;5011327;28;20407;-45
2024/03/15 02:56:35;;;;;;;241.07;75.60;;;;;;;;;;5010979;28;21000;-46
2024/03/15 02:59:02;;;;;;;241.43;73.97;;;;;;;;;;5011304;28;20472;-45
2024/03/15 03:01:28;;;;;;;249.45;85.65;;;;;;;;;;5011389;28;20175;-45
2024/03/15 03:03:55;;;;;;;248.73;79.07;;;;;;;;;;5011517;28;20178;-45
2024/03/15 03:06:21;;;;;;;246.55;77.13;;;;;;;;;;5010742;28;20816;-45
2024/03/15 03:08:48;;;;;;;246.60;77.05;;;;;;;;;;5011258;28;20250;-46
2024/03/15 03:11:16;;;;;;;250.27;82.50;;;;;;;;;;5011095;28;20176;-45
2024/03/15 03:13:43;;;;;;;247.00;79.07;;;;;;;;;;5011244;28;20602;-45
2024/03/15 03:16:10;;;;;;;247.20;79.60;;;;;;;;;;5010805;28;20690;-45
2024/03/15 03:18:36;;;;;;;243.35;74.57;;;;;;;;;;5011042;28;20213;-46
2024/03/15 03:21:02;;;;;;;249.02;82.50;;;;;;;;;;5011130;28;20607;-45
2024/03/15 03:23:28;;;;;;;243.13;75.72;;;;;;;;;;5009770;28;20602;-45
2024/03/15 03:25:54;;;;;;;247.30;80.60;;;;;;;;;;5010771;28;20227;-45
2024/03/15 03:28:20;;;;;;;246.77;80.67;;;;;;;;;;5011014;28;20422;-45
2024/03/15 03:30:47;;;;;;;246.98;79.63;;;;;;;;;;5012291;28;20416;-45
2024/03/15 03:33:13;;;;;;;247.07;80.00;;;;;;;;;;5017499;28;20186;-45
2024/03/15 03:35:42;;;;;;;248.63;80.75;;;;;;;;;;5017599;28;20205;-45
2024/03/15 03:38:08;;;;;;;249.63;84.93;;;;;;;;;;5017373;28;20176;-46
2024/03/15 03:40:34;;;;;;;245.37;79.37;;;;;;;;;;5017245;28;20214;-45
2024/03/15 03:43:03;;;;;;;244.30;77.90;;;;;;;;;;5017455;28;20498;-45
2024/03/15 03:45:30;;;;;;;245.20;79.82;;;;;;;;;;5017035;28;20500;-45
2024/03/15 03:47:57;;;;;;;248.75;81.30;;;;;;;;;;5017804;28;20170;-45
2024/03/15 03:50:23;;;;;;;243.73;77.75;;;;;;;;;;5017463;28;20179;-45
2024/03/15 03:52:50;;;;;;;241.27;72.60;;;;;;;;;;5017347;28;20240;-45
2024/03/15 03:55:17;;;;;;;253.82;81.03;;;;;;;;;;5017157;28;20424;-45
2024/03/15 03:57:46;;;;;;;245.43;72.93;;;;;;;;;;5017479;28;20263;-45
2024/03/15 04:00:16;;;;;;;245.93;75.90;;;;;;;;;;5017189;28;20544;-46
2024/03/15 04:02:45;;;;;;;245.27;74.68;;;;;;;;;;5017317;28;20542;-45
2024/03/15 04:05:15;;;;;;;255.02;82.43;;;;;;;;;;5016856;28;20205;-45
2024/03/15 04:07:41;;;;;;;246.68;76.80;;;;;;;;;;5017147;28;20176;-45
2024/03/15 04:10:08;;;;;;;247.00;78.45;;;;;;;;;;5017259;28;20183;-45
2024/03/15 04:12:35;;;;;;;251.23;81.90;;;;;;;;;;5017388;28;20187;-46
2024/03/15 04:15:01;;;;;;;245.23;74.15;;;;;;;;;;5017060;28;20183;-45
2024/03/15 04:17:27;;;;;;;245.57;77.57;;;;;;;;;;5016992;28;20253;-45
2024/03/15 04:19:53;;;;;;;249.38;79.93;;;;;;;;;;5017572;28;20195;-45
2024/03/15 04:22:21;;;;;;;244.30;76.00;;;;;;;;;;5017900;28;20182;-45
2024/03/15 04:24:49;;;;;;;247.00;81.60;;;;;;;;;;5017086;28;20178;-45
2024/03/15 04:27:15;;;;;;;244.32;78.50;;;;;;;;;;5016636;28;20702;-45
2024/03/15 04:29:41;;;;;;;243.87;78.70;;;;;;;;;;5017074;28;20210;-45
2024/03/15 04:32:09;;;;;;;246.53;80.63;;;;;;;;;;5016955;28;20434;-45
2024/03/15 04:34:37;;;;;;;243.73;78.85;;;;;;;;;;5017040;28;20468;-44
2024/03/15 04:37:04;;;;;;;245.50;77.75;;;;;;;;;;5017295;28;20194;-44
2024/03/15 04:39:30;;;;;;;241.55;74.93;;;;;;;;;;5016989;28;20204;-45
2024/03/15 04:41:56;;;;;;;246.33;81.57;;;;;;;;;;5016754;28;20180;-44
2024/03/15 04:44:22;;;;;;;246.07;80.80;;;;;;;;;;5012597;28;20485;-44
2024/03/15 04:46:49;;;;;;;242.65;75.55;;;;;;;;;;5010194;28;20511;-45
2024/03/15 04:49:17;;;;;;;243.23;75.15;;;;;;;;;;5013233;28;20599;-45
2024/03/15 04:51:43;;;;;;;243.27;75.43;;;;;;;;;;5013378;28;20195;-45
2024/03/15 04:54:09;;;;;;;244.70;74.47;;;;;;;;;;5013265;28;20273;-45
2024/03/15 04:56:35;;;;;;;244.37;76.43;;;;;;;;;;5015897;28;20249;-45
2024/03/15 04:59:01;;;;;;;247.48;80.22;;;;;;;;;;5013390;28;21001;-45
2024/03/15 05:01:27;;;;;;;243.25;76.63;;;;;;;;;;5013643;28;20553;-44
2024/03/15 05:03:53;;;;;;;244.07;73.63;;;;;;;;;;5013096;28;20176;-45
2024/03/15 05:06:19;;;;;;;242.07;71.77;;;;;;;;;;5012752;28;20534;-45
2024/03/15 05:08:45;;;;;;;238.63;72.53;;;;;;;;;;5013259;28;20463;-45
2024/03/15 05:11:13;;;;;;;241.20;77.50;;;;;;;;;;5013168;28;20402;-45
2024/03/15 05:13:39;;;;;;;243.23;78.22;;;;;;;;;;5013042;28;20407;-45
2024/03/15 05:16:06;;;;;;;238.07;71.15;;;;;;;;;;5012806;28;20219;-45
2024/03/15 05:18:32;;;;;;;238.90;72.80;;;;;;;;;;5012855;28;20254;-45
2024/03/15 05:20:58;;;;;;;238.73;73.07;;;;;;;;;;5012992;28;20600;-45
2024/03/15 05:23:24;;;;;;;237.30;71.53;;;;;;;;;;5013134;28;20207;-45
2024/03/15 05:25:50;;;;;;;241.30;75.28;;;;;;;;;;5012731;28;20267;-44
2024/03/15 05:28:16;;;;;;;238.40;71.30;;;;;;;;;;5013213;28;20262;-45
2024/03/15 05:30:43;;;;;;;237.57;73.17;;;;;;;;;;5012686;28;20675;-45
2024/03/15 05:33:09;;;;;;;245.73;84.53;;;;;;;;;;5012642;28;20453;-44
2024/03/15 05:35:35;;;;;;;241.97;78.47;;;;;;;;;;5012428;28;20236;-45
2024/03/15 05:38:01;;;;;;;236.77;72.70;;;;;;;;;;5012530;28;20418;-45
2024/03/15 05:40:27;;;;;;;237.67;74.07;;;;;;;;;;5012523;28;20462;-45
2024/03/15 05:42:53;;;;;;;241.63;79.88;;;;;;;;;;5012557;28;20420;-45
2024/03/15 05:45:22;;;;;;;245.82;82.10;;;;;;;;;;5012117;28;20176;-45
2024/03/15 05:47:50;;;;;;;240.05;73.28;;;;;;;;;;5012466;28;20778;-45
2024/03/15 05:50:16;;;;;;;240.07;74.20;;;;;;;;;;5012578;28;20178;-44
2024/03/15 05:52:42;;;;;;;240.27;75.77;;;;;;;;;;5012335;28;20654;-45
2024/03/15 05:55:08;;;;;;;244.97;78.87;;;;;;;;;;5010770;28;20422;-45
2024/03/15 05:57:34;;;;;;;241.23;77.95;;;;;;;;;;5012228;28;20414;-45
2024/03/15 06:00:10;;;;;;;240.82;74.30;;;;;;;;;;5012095;28;20311;-44
2024/03/15 06:02:36;;;;;;;238.35;72.72;;;;;;;;;;5010977;28;20213;-45
2024/03/15 06:05:04;;;;;;;234.77;66.63;;;;;;;;;;5012178;28;20203;-45
2024/03/15 06:07:30;;;;;;;241.25;75.63;;;;;;;;;;5007681;28;20857;-45
2024/03/15 06:09:56;;;;;;;238.93;74.57;;;;;;;;;;5011474;28;20191;-44
2024/03/15 06:12:27;;;;;;;238.10;72.20;;;;;;;;;;5011437;28;20466;-45
2024/03/15 06:14:53;;;;;;;240.57;71.78;;;;;;;;;;5011464;28;20459;-45
2024/03/15 06:17:19;;;;;;;245.30;80.67;;;;;;;;;;5009823;28;20239;-45
2024/03/15 06:19:45;;;;;;;235.85;69.35;;;;;;;;;;5011365;28;20465;-45
2024/03/15 06:22:13;;;;;;;239.27;71.88;;;;;;;;;;5011269;28;20171;-45
2024/03/15 06:24:39;;;;;;;241.88;76.20;;;;;;;;;;5011028;28;20588;-44
2024/03/15 06:27:13;;;;;;;240.33;76.20;;;;;;;;;;5011724;28;20342;-45
2024/03/15 06:29:40;;;;;;;237.10;70.30;;;;;;;;;;5011783;28;20402;-44
2024/03/15 06:32:06;;;;;;;242.10;76.45;;;;;;;;;;5011758;28;20175;-44
2024/03/15 06:34:35;;;;;;;237.97;71.37;;;;;;;;;;5011586;28;20190;-45
2024/03/15 06:37:01;;;;;;;239.82;72.80;;;;;;;;;;5011307;28;20849;-45
2024/03/15 06:42:20;;;;;;;241.32;76.90;;;;;;;;;;5011883;28;20183;-44
2024/03/15 06:44:50;;;;;;;241.75;75.07;;;;;;;;;;5010552;28;20179;-45
2024/03/15 06:47:17;;;;;;;245.77;80.20;;;;;;;;;;5010927;28;20184;-45
2024/03/15 06:50:06;;;;;;;244.68;79.03;;;;;;;;;;5011232;28;20839;-45
2024/03/15 06:52:35;;;;;;;243.93;80.30;;;;;;;;;;5007628;28;20179;-45
2024/03/15 06:55:05;;;;;;;249.60;81.82;;;;;;;;;;5011128;28;20179;-45
2024/03/15 06:57:32;;;;;;;241.43;76.25;;;;;;;;;;5007289;28;20279;-45
2024/03/15 06:59:58;;;;;;;239.73;74.47;;;;;;;;;;5011208;28;20207;-45
2024/03/15 07:02:24;;;;;;;242.53;77.63;;;;;;;;;;5011762;28;20177;-45
2024/03/15 07:04:50;;;;;;;242.20;75.13;;;;;;;;;;5011051;28;20418;-44
2024/03/15 07:07:20;;;;;;;239.25;75.05;;;;;;;;;;5010320;28;20487;-45
2024/03/15 07:09:46;;;;;;;242.63;76.82;;;;;;;;;;5010980;28;20678;-45
2024/03/15 07:12:15;;;;;;;245.18;75.70;;;;;;;;;;5010172;28;20187;-45
2024/03/15 07:14:42;;;;;;;243.20;72.75;;;;;;;;;;5010798;28;20199;-45
2024/03/15 07:17:09;;;;;;;248.65;81.13;;;;;;;;;;5010439;28;20188;-45
2024/03/15 07:19:35;;;;;;;244.75;75.53;;;;;;;;;;5010809;28;20209;-45
2024/03/15 07:22:01;;;;;;;247.48;81.85;;;;;;;;;;5010816;28;20608;-45
2024/03/15 07:24:27;;;;;;;246.32;77.75;;;;;;;;;;5010970;28;20636;-44
2024/03/15 07:26:54;;;;;;;240.40;74.03;;;;;;;;;;5010536;28;20695;-45
2024/03/15 07:29:20;;;;;;;245.48;81.28;;;;;;;;;;5010811;28;20178;-45
2024/03/15 07:31:46;;;;;;;244.68;80.72;;;;;;;;;;5010725;28;20237;-44
2024/03/15 07:34:16;;;;;;;242.43;73.13;;;;;;;;;;5010620;28;20187;-45
2024/03/15 07:36:42;;;;;;;246.98;80.78;;;;;;;;;;5006504;28;20218;-45
2024/03/15 07:39:08;;;;;;;244.00;77.40;;;;;;;;;;5010603;28;20199;-45
2024/03/15 07:41:34;;;;;;;242.73;74.20;;;;;;;;;;5011768;28;20179;-45
2024/03/15 07:44:03;;;;;;;244.95;78.18;;;;;;;;;;5012148;28;20458;-45
2024/03/15 07:46:30;;;;;;;247.40;78.68;;;;;;;;;;5010845;28;20188;-45
2024/03/15 07:48:57;;;;;;;251.10;84.03;;;;;;;;;;5010795;28;20176;-45
2024/03/15 07:51:24;;;;;;;247.88;81.53;;;;;;;;;;5010825;28;20196;-45
2024/03/15 07:53:51;;;;;;;246.38;78.82;;;;;;;;;;5010413;28;20577;-45
2024/03/15 07:56:17;;;;;;;246.98;79.70;;;;;;;;;;5010206;28;20634;-45
2024/03/15 07:58:43;;;;;;;252.53;85.53;;;;;;;;;;5010163;28;20179;-45
2024/03/15 08:01:09;;;;;;;247.65;79.60;;;;;;;;;;5010434;28;20506;-44
2024/03/15 08:03:35;;;;;;;242.50;73.85;;;;;;;;;;5010526;28;20167;-45
2024/03/15 08:06:03;;;;;;;242.32;73.03;;;;;;;;;;5010063;28;20625;-45
2024/03/15 08:08:30;;;;;;;240.48;71.32;;;;;;;;;;5010258;28;20180;-45
2024/03/15 08:10:56;;;;;;;243.15;75.28;;;;;;;;;;5010484;28;20176;-45
2024/03/15 08:13:26;;;;;;;248.93;81.20;;;;;;;;;;5010319;28;20673;-45
2024/03/15 08:15:59;;;;;;;248.75;80.95;;;;;;;;;;5010052;28;20484;-45
2024/03/15 08:18:25;;;;;;;246.07;79.18;;;;;;;;;;5011083;28;20180;-45
2024/03/15 08:20:51;;;;;;;246.45;79.15;;;;;;;;;;5013370;28;20627;-45
2024/03/15 08:23:18;;;;;;;244.87;75.77;;;;;;;;;;5013826;28;20215;-45
2024/03/15 08:25:44;;;;;;;246.98;80.43;;;;;;;;;;5013330;28;20434;-45
2024/03/15 08:28:13;;;;;;;244.70;75.10;;;;;;;;;;5013088;28;20180;-45
2024/03/15 08:30:40;;;;;;;244.07;75.83;;;;;;;;;;5013722;28;21001;-45
2024/03/15 08:33:06;;;;;;;249.43;81.57;;;;;;;;;;5014021;28;20421;-44
2024/03/15 08:35:32;;;;;;;244.80;76.37;;;;;;;;;;5013710;28;20237;-45
2024/03/15 08:37:58;;;;;;;246.77;75.90;;;;;;;;;;5013937;28;20440;-45
2024/03/15 08:40:25;;;;;;;247.27;81.37;;;;;;;;;;5013499;28;20451;-44
2024/03/15 08:42:51;;;;;;;239.63;71.45;;;;;;;;;;5013688;28;20898;-44
2024/03/15 08:45:19;;;;;;;244.27;75.30;;;;;;;;;;5013346;28;20179;-45
2024/03/15 08:47:46;;;;;;;245.43;80.93;;;;;;;;;;5012574;28;20781;-45
2024/03/15 08:50:13;;;;;;;238.68;73.70;;;;;;;;;;5011226;28;20414;-45
2024/03/15 08:52:39;;;;;;;240.30;74.90;;;;;;;;;;5013605;28;20209;-44
2024/03/15 08:55:09;;;;;;;243.52;77.93;;;;;;;;;;5013070;28;20413;-44
2024/03/15 08:57:36;;;;;;;242.37;77.87;;;;;;;;;;5013557;28;20358;-45
2024/03/15 09:00:02;;;;;;;242.88;75.60;;;;;;;;;;5013589;28;20458;-45
2024/03/15 09:02:29;;;;;;;236.67;70.07;;;;;;;;;;5013555;28;20168;-45
2024/03/15 09:04:55;;;;;;;239.40;70.87;;;;;;;;;;5013742;28;20411;-45
2024/03/15 09:07:24;;;;;;;239.67;72.57;;;;;;;;;;5013782;28;20559;-45
2024/03/15 09:09:50;;;;;;;245.87;81.77;;;;;;;;;;5013134;28;20446;-45
2024/03/15 09:12:18;;;;;;;240.30;73.97;;;;;;;;;;5012877;28;20807;-45
2024/03/15 09:14:46;;;;;;;240.23;71.47;;;;;;;;;;5012924;28;20464;-44
2024/03/15 09:17:12;;;;;;;242.77;77.40;;;;;;;;;;5010973;28;20203;-45
2024/03/15 09:19:38;;;;;;;247.37;79.80;;;;;;;;;;5011654;28;20463;-45
2024/03/15 09:22:04;;;;;;;243.77;75.83;;;;;;;;;;5012716;28;20433;-45
2024/03/15 09:24:31;;;;;;;247.07;80.27;;;;;;;;;;5004533;28;20405;-45
2024/03/15 09:26:58;;;;;;;239.47;72.47;;;;;;;;;;5011927;28;20427;-45
2024/03/15 09:29:24;;;;;;;239.83;75.17;;;;;;;;;;5011852;28;20435;-45
2024/03/15 09:31:51;;;;;;;241.73;74.93;;;;;;;;;;5012814;28;20419;-45
2024/03/15 09:34:18;;;;;;;242.17;76.50;;;;;;;;;;5012875;28;20984;-45
2024/03/15 09:36:44;;;;;;;244.00;76.87;;;;;;;;;;5012278;28;20566;-45
2024/03/15 09:39:13;;;;;;;243.50;76.43;;;;;;;;;;5012718;28;20944;-45
2024/03/15 09:41:39;;;;;;;249.33;87.77;;;;;;;;;;5012772;28;20441;-45
2024/03/15 09:44:11;;;;;;;243.13;78.27;;;;;;;;;;5012838;28;20443;-45
2024/03/15 09:46:37;;;;;;;243.57;75.63;;;;;;;;;;5012523;28;20436;-45
2024/03/15 09:49:05;;;;;;;243.17;77.43;;;;;;;;;;5012635;28;20419;-44
2024/03/15 09:51:31;;;;;;;245.30;79.33;;;;;;;;;;5004361;28;20418;-45
2024/03/15 09:53:57;;;;;;;245.10;81.37;;;;;;;;;;5011966;28;20510;-45
2024/03/15 09:56:25;;;;;;;246.30;83.70;;;;;;;;;;5012184;28;20440;-45
2024/03/15 09:58:52;;;;;;;246.20;82.03;;;;;;;;;;5010993;28;20500;-45
2024/03/15 10:01:18;;;;;;;247.07;82.68;;;;;;;;;;5012000;28;20415;-45
2024/03/15 10:03:47;;;;;;;252.63;85.10;;;;;;;;;;5011014;28;20183;-45
2024/03/15 10:06:14;;;;;;;251.30;88.37;;;;;;;;;;5011447;28;20468;-45
2024/03/15 10:08:40;;;;;;;244.37;77.80;;;;;;;;;;5012052;28;20490;-44
2024/03/15 10:11:07;;;;;;;247.57;85.77;;;;;;;;;;5012347;28;20512;-45
2024/03/15 10:13:33;;;;;;;251.47;85.57;;;;;;;;;;5011752;28;20417;-45
2024/03/15 10:16:05;;;;;;;243.57;79.77;;;;;;;;;;5011616;28;20942;-45
2024/03/15 10:18:37;;;;;;;249.07;86.73;;;;;;;;;;5011443;28;20418;-46
2024/03/15 10:21:04;;;;;;;247.57;86.70;;;;;;;;;;5008322;28;20911;-45
2024/03/15 10:23:30;;;;;;;248.03;80.93;;;;;;;;;;5007597;28;20811;-45
2024/03/15 10:25:57;;;;;;;247.77;86.03;;;;;;;;;;5011494;28;20514;-45
2024/03/15 10:28:23;;;;;;;244.93;81.83;;;;;;;;;;5011735;28;20399;-45
2024/03/15 10:30:49;;;;;;;248.95;89.10;;;;;;;;;;5011564;28;20399;-45
2024/03/15 10:33:15;;;;;;;252.40;91.53;;;;;;;;;;5012009;28;20164;-45
2024/03/15 10:35:42;;;;;;;245.20;81.00;;;;;;;;;;5010988;28;20793;-45
2024/03/15 10:38:09;;;;;;;246.70;83.00;;;;;;;;;;5011595;28;20927;-45
2024/03/15 10:40:35;;;;;;;245.10;80.17;;;;;;;;;;5010826;28;20466;-45
2024/03/15 10:43:02;;;;;;;255.90;98.13;;;;;;;;;;5011723;28;20406;-45
2024/03/15 10:45:28;;;;;;;249.63;87.83;;;;;;;;;;5011043;28;20423;-45
2024/03/15 10:47:55;;;;;;;250.40;88.20;;;;;;;;;;5011552;28;20411;-45
2024/03/15 10:50:22;;;;;;;249.13;85.73;;;;;;;;;;5011491;28;20407;-45
2024/03/15 10:52:50;;;;;;;246.30;81.83;;;;;;;;;;5011547;28;20424;-45
2024/03/15 10:55:20;;;;;;;251.37;84.57;;;;;;;;;;5011162;28;20830;-45
2024/03/15 10:57:47;;;;;;;246.45;82.25;;;;;;;;;;5011488;28;20421;-45
2024/03/15 11:00:18;;;;;;;244.43;80.63;;;;;;;;;;5011393;28;20202;-45
2024/03/15 11:02:45;;;;;;;251.23;84.77;;;;;;;;;;5011390;28;20641;-45
2024/03/15 11:05:18;;;;;;;271.83;101.97;;;;;;;;;;5009964;28;20556;-45
2024/03/15 11:07:44;;;;;;;251.53;86.10;;;;;;;;;;5011258;28;20926;-45
2024/03/15 11:10:11;;;;;;;248.52;83.80;;;;;;;;;;5011163;28;20416;-45
2024/03/15 11:12:37;;;;;;;250.53;86.17;;;;;;;;;;5011085;28;20260;-45
2024/03/15 11:15:17;;;;;;;249.00;84.87;;;;;;;;;;5011029;28;20413;-45
2024/03/15 11:17:43;;;;;;;247.73;84.70;;;;;;;;;;5004853;28;20411;-45
2024/03/15 11:20:13;;;;;;;268.90;105.43;;;;;;;;;;5009721;28;20501;-45
2024/03/15 11:22:39;;;;;;;253.47;95.40;;;;;;;;;;5008138;28;20410;-45
2024/03/15 11:25:05;;;;;;;252.43;90.73;;;;;;;;;;5010340;28;20429;-45
2024/03/15 11:27:52;;;;;;;250.30;88.63;;;;;;;;;;5010727;28;20430;-45
2024/03/15 11:30:18;;;;;;;253.00;90.17;;;;;;;;;;5010689;28;20853;-45
2024/03/15 11:32:44;;;;;;;254.63;94.03;;;;;;;;;;5010795;28;20519;-45
2024/03/15 11:35:10;;;;;;;260.23;101.03;;;;;;;;;;5010053;28;20997;-45
2024/03/15 11:37:36;;;;;;;260.77;99.60;;;;;;;;;;5009095;28;20425;-45
2024/03/15 11:40:06;;;;;;;252.68;88.72;;;;;;;;;;5009983;28;20558;-45
2024/03/15 11:42:32;;;;;;;251.20;88.83;;;;;;;;;;5011273;28;20178;-45
2024/03/15 11:44:58;;;;;;;259.10;100.40;;;;;;;;;;5010721;28;20407;-45
2024/03/15 11:47:26;;;;;;;256.70;97.80;;;;;;;;;;5009574;28;20798;-45
2024/03/15 11:49:55;;;;;;;252.80;92.23;;;;;;;;;;5010870;28;20418;-45
2024/03/15 11:52:21;;;;;;;253.97;93.23;;;;;;;;;;5011932;28;20414;-45
2024/03/15 11:54:51;;;;;;;252.97;93.63;;;;;;;;;;5014040;28;20413;-45
2024/03/15 11:57:17;;;;;;;255.50;94.17;;;;;;;;;;5012488;28;20807;-45
2024/03/15 11:59:43;;;;;;;251.03;94.37;;;;;;;;;;5014084;28;20992;-45
2024/03/15 12:02:11;;;;;;;250.90;93.53;;;;;;;;;;5014387;28;20705;-45
2024/03/15 12:04:37;;;;;;;254.93;98.23;;;;;;;;;;5014792;28;20418;-45
2024/03/15 12:07:06;;;;;;;253.23;93.67;;;;;;;;;;5013861;28;20453;-45
2024/03/15 12:09:32;;;;;;;252.83;92.07;;;;;;;;;;5014169;28;20417;-45
2024/03/15 12:11:58;;;;;;;255.83;97.03;;;;;;;;;;5014427;28;20429;-45
2024/03/15 12:14:24;;;;;;;255.73;96.57;;;;;;;;;;5014010;28;20419;-45
2024/03/15 12:16:52;;;;;;;259.37;103.60;;;;;;;;;;5013458;28;20471;-45
2024/03/15 12:19:18;;;;;;;254.20;99.37;;;;;;;;;;5013303;28;20500;-45
2024/03/15 12:21:46;;;;;;;254.03;102.87;;;;;;;;;;5013939;28;20449;-46
2024/03/15 12:24:12;;;;;;;252.10;99.30;;;;;;;;;;5013754;28;20411;-45
2024/03/15 12:26:38;;;;;;;256.23;107.60;;;;;;;;;;5013751;28;20427;-45
2024/03/15 12:29:04;;;;;;;255.33;103.77;;;;;;;;;;5014427;28;20417;-45
2024/03/15 12:31:30;;;;;;;258.30;107.67;;;;;;;;;;5013918;28;20425;-45
2024/03/15 12:33:56;;;;;;;256.27;106.43;;;;;;;;;;5013986;28;20418;-46
2024/03/15 12:36:22;;;;;;;257.47;110.73;;;;;;;;;;5013356;28;20489;-46
2024/03/15 12:38:48;;;;;;;254.77;108.07;;;;;;;;;;5013825;28;20902;-46
2024/03/15 12:41:14;;;;;;;256.53;110.10;;;;;;;;;;5013941;28;20422;-45
2024/03/15 12:43:40;;;;;;;254.23;106.63;;;;;;;;;;5013875;28;20984;-46
2024/03/15 12:46:11;;;;;;;254.63;106.10;;;;;;;;;;5013378;28;20465;-46
2024/03/15 12:48:37;;;;;;;256.40;108.37;;;;;;;;;;5013762;28;20806;-46
2024/03/15 12:51:03;;;;;;;256.23;105.47;;;;;;;;;;5013631;28;20434;-46
2024/03/15 12:53:29;;;;;;;253.57;100.37;;;;;;;;;;5012612;28;20425;-46
2024/03/15 12:55:56;;;;;;;254.00;99.83;;;;;;;;;;5012892;28;20449;-45
2024/03/15 12:58:22;;;;;;;253.13;97.93;;;;;;;;;;5012902;28;20427;-45
2024/03/15 13:00:49;;;;;;;250.50;95.47;;;;;;;;;;5013392;28;20465;-45
2024/03/15 13:03:17;;;;;;;256.20;100.27;;;;;;;;;;5013168;28;20407;-45
2024/03/15 13:05:43;;;;;;;252.33;97.20;;;;;;;;;;5012965;28;20447;-45
2024/03/15 13:08:09;;;;;;;252.60;95.77;;;;;;;;;;5013344;28;20465;-45
2024/03/15 13:10:35;;;;;;;250.17;93.00;;;;;;;;;;5012089;28;20417;-45
2024/03/15 13:13:06;;;;;;;249.73;91.50;;;;;;;;;;5013464;28;20463;-45
2024/03/15 13:15:33;;;;;;;251.43;96.03;;;;;;;;;;5005449;28;20469;-45
2024/03/15 13:18:01;;;;;;;252.47;96.60;;;;;;;;;;5013360;28;20775;-45
2024/03/15 13:20:27;;;;;;;250.93;94.97;;;;;;;;;;5013340;28;20678;-45
2024/03/15 13:22:54;;;;;;;248.90;91.97;;;;;;;;;;5013251;28;20411;-45
2024/03/15 13:25:23;;;;;;;253.63;98.93;;;;;;;;;;5012902;28;20961;-45
2024/03/15 13:27:52;;;;;;;253.50;98.43;;;;;;;;;;5012928;28;20413;-45
2024/03/15 13:30:19;;;;;;;253.27;99.40;;;;;;;;;;5012702;28;20422;-45
2024/03/15 13:32:46;;;;;;;247.87;92.20;;;;;;;;;;5013162;28;20991;-45
2024/03/15 13:35:15;;;;;;;256.33;98.03;;;;;;;;;;5012948;28;20411;-45
2024/03/15 13:37:41;;;;;;;253.57;101.23;;;;;;;;;;5013048;28;20497;-45
2024/03/15 13:40:15;;;;;;;254.60;102.60;;;;;;;;;;5012621;28;20478;-45
2024/03/15 13:42:43;;;;;;;250.53;96.03;;;;;;;;;;5012999;28;20433;-45
2024/03/15 13:45:13;;;;;;;256.80;102.93;;;;;;;;;;5012143;28;20414;-45
2024/03/15 13:50:42;;;;;;;250.00;92.53;;;;;;;;;;5006262;28;20390;-45
2024/03/15 13:53:08;;;;;;;250.47;93.37;;;;;;;;;;5012083;28;20402;-45
2024/03/15 13:55:37;;;;;;;251.67;95.00;;;;;;;;;;5012162;28;20469;-45
2024/03/15 13:58:03;;;;;;;253.40;94.10;;;;;;;;;;5012432;28;20406;-45
2024/03/15 14:00:32;;;;;;;255.67;97.07;;;;;;;;;;5012035;28;20465;-45
2024/03/15 14:03:01;;;;;;;247.50;90.73;;;;;;;;;;5012723;28;20412;-45
2024/03/15 14:05:28;;;;;;;249.77;91.67;;;;;;;;;;5012347;28;20829;-46
2024/03/15 14:07:54;;;;;;;254.13;97.23;;;;;;;;;;5011926;28;20405;-46